createdAt,value
2022-08-16T00:00:04.080Z,12.20
2022-08-16T00:02:53.863Z,11.73
2022-08-16T00:05:22.917Z,11.02
2022-08-16T00:07:56.383Z,11.50
2022-08-16T00:10:26.707Z,10.70
2022-08-16T00:12:56.331Z,11.18
2022-08-16T00:15:51.432Z,11.43
2022-08-16T00:18:22.385Z,11.05
2022-08-16T00:20:57.867Z,11.35
2022-08-16T00:23:34.382Z,12.07
2022-08-16T00:26:36.230Z,11.65
2022-08-16T00:28:55.258Z,12.25
2022-08-16T00:31:24.203Z,12.63
2022-08-16T00:33:51.828Z,12.38
2022-08-16T00:36:19.955Z,12.55
2022-08-16T00:38:47.448Z,12.95
2022-08-16T00:41:15.366Z,12.93
2022-08-16T00:43:44.552Z,13.18
2022-08-16T00:46:34.413Z,12.85
2022-08-16T00:49:05.988Z,13.60
2022-08-16T00:51:33.747Z,12.88
2022-08-16T00:54:01.188Z,12.35
2022-08-16T00:56:56.466Z,13.20
2022-08-16T00:59:26.040Z,13.00
2022-08-16T01:01:53.955Z,13.27
2022-08-16T01:04:29.325Z,13.77
2022-08-16T01:07:01.714Z,12.02
2022-08-16T01:09:33.457Z,14.32
2022-08-16T01:12:04.201Z,13.82
2022-08-16T01:14:41.316Z,13.85
2022-08-16T01:17:14.612Z,14.23
2022-08-16T01:19:52.339Z,13.98
2022-08-16T01:22:49.397Z,14.80
2022-08-16T01:25:33.687Z,12.65
2022-08-16T01:28:07.177Z,14.23
2022-08-16T01:30:39.842Z,13.88
2022-08-16T01:33:17.499Z,14.05
2022-08-16T01:35:53.320Z,13.75
2022-08-16T01:38:28.417Z,14.60
2022-08-16T01:41:02.514Z,14.93
2022-08-16T01:43:33.588Z,15.13
2022-08-16T01:46:30.193Z,15.63
2022-08-16T01:49:00.169Z,17.02
2022-08-16T01:51:28.337Z,16.25
2022-08-16T01:53:57.902Z,16.70
2022-08-16T01:56:33.009Z,16.27
2022-08-16T01:59:07.013Z,16.55
2022-08-16T02:01:43.483Z,15.57
2022-08-16T02:04:48.816Z,15.73
2022-08-16T02:07:11.140Z,15.70
2022-08-16T02:09:40.939Z,15.18
2022-08-16T02:12:39.703Z,15.25
2022-08-16T02:14:57.603Z,16.55
2022-08-16T02:17:28.448Z,15.65
2022-08-16T02:19:59.481Z,15.38
2022-08-16T02:22:33.494Z,15.18
2022-08-16T02:25:09.948Z,15.63
2022-08-16T02:27:40.896Z,16.55
2022-08-16T02:30:37.538Z,16.33
2022-08-16T02:33:03.889Z,18.08
2022-08-16T02:35:32.370Z,16.77
2022-08-16T02:38:01.706Z,17.30
2022-08-16T02:40:38.587Z,16.23
2022-08-16T02:43:09.674Z,18.25
2022-08-16T02:45:39.279Z,17.42
2022-08-16T02:48:28.433Z,16.15
2022-08-16T02:51:06.819Z,17.52
2022-08-16T02:53:43.947Z,17.52
2022-08-16T02:56:15.997Z,18.33
2022-08-16T02:58:50.151Z,17.92
2022-08-16T03:01:25.240Z,18.20
2022-08-16T03:04:24.946Z,17.25
2022-08-16T03:06:57.738Z,18.63
2022-08-16T03:09:38.091Z,17.88
2022-08-16T03:12:06.656Z,18.23
2022-08-16T03:14:34.660Z,18.08
2022-08-16T03:17:04.751Z,18.23
2022-08-16T03:19:48.269Z,18.83
2022-08-16T03:22:28.337Z,19.73
2022-08-16T03:25:08.168Z,18.27
2022-08-16T03:27:39.162Z,17.65
2022-08-16T03:30:18.058Z,18.48
2022-08-16T03:32:58.579Z,18.52
2022-08-16T03:35:34.224Z,20.17
2022-08-16T03:38:32.659Z,19.77
2022-08-16T03:41:24.181Z,19.70
2022-08-16T03:43:56.954Z,17.35
2022-08-16T03:46:47.960Z,17.70
2022-08-16T03:49:23.626Z,15.48
2022-08-16T03:52:04.536Z,17.48
2022-08-16T03:54:35.590Z,19.58
2022-08-16T03:57:05.084Z,17.67
2022-08-16T03:59:33.708Z,18.65
2022-08-16T04:02:12.655Z,17.70
2022-08-16T04:04:50.821Z,19.50
2022-08-16T04:07:18.073Z,20.10
2022-08-16T04:09:47.166Z,20.42
2022-08-16T04:12:52.323Z,20.23
2022-08-16T04:15:04.600Z,19.05
2022-08-16T04:17:38.659Z,20.98
2022-08-16T04:20:31.725Z,20.15
2022-08-16T04:22:57.434Z,20.88
2022-08-16T04:25:27.127Z,20.45
2022-08-16T04:27:55.963Z,19.58
2022-08-16T04:30:31.781Z,20.13
2022-08-16T04:33:00.507Z,20.55
2022-08-16T04:35:33.948Z,22.25
2022-08-16T04:38:11.023Z,21.67
2022-08-16T04:40:50.005Z,22.77
2022-08-16T04:43:19.059Z,22.15
2022-08-16T04:45:47.481Z,20.45
2022-08-16T04:48:33.833Z,22.42
2022-08-16T04:51:12.283Z,21.75
2022-08-16T04:53:45.367Z,20.20
2022-08-16T04:56:14.435Z,21.35
2022-08-16T04:58:46.905Z,20.85
2022-08-16T05:01:17.916Z,19.75
2022-08-16T05:04:00.262Z,18.65
2022-08-16T05:06:45.152Z,20.35
2022-08-16T05:09:22.811Z,19.83
2022-08-16T05:11:51.906Z,21.13
2022-08-16T05:14:42.010Z,19.73
2022-08-16T05:17:06.399Z,20.25
2022-08-16T05:19:35.918Z,20.40
2022-08-16T05:22:18.146Z,19.77
2022-08-16T05:24:49.414Z,19.75
2022-08-16T05:27:22.515Z,18.77
2022-08-16T05:29:59.461Z,18.75
2022-08-16T05:32:36.527Z,18.17
2022-08-16T05:35:16.051Z,18.85
2022-08-16T05:38:00.763Z,17.75
2022-08-16T05:40:29.765Z,18.40
2022-08-16T05:42:58.107Z,17.42
2022-08-16T05:45:26.871Z,17.63
2022-08-16T05:48:00.429Z,18.23
2022-08-16T05:50:54.317Z,17.08
2022-08-16T05:53:22.256Z,16.67
2022-08-16T05:56:07.374Z,17.50
2022-08-16T05:58:40.174Z,16.27
2022-08-16T06:01:09.797Z,16.17
2022-08-16T06:03:39.371Z,16.15
2022-08-16T06:06:14.620Z,15.68
2022-08-16T06:08:55.365Z,16.73
2022-08-16T06:11:25.552Z,15.48
2022-08-16T06:13:57.757Z,16.67
2022-08-16T06:16:50.921Z,15.32
2022-08-16T06:19:20.095Z,15.10
2022-08-16T06:22:00.848Z,15.68
2022-08-16T06:24:53.594Z,14.68
2022-08-16T06:27:17.761Z,14.52
2022-08-16T06:29:50.275Z,14.68
2022-08-16T06:32:27.348Z,14.98
2022-08-16T06:35:02.073Z,15.45
2022-08-16T06:37:36.819Z,14.55
2022-08-16T06:40:12.977Z,14.00
2022-08-16T06:42:48.429Z,14.75
2022-08-16T06:45:38.134Z,13.95
2022-08-16T06:48:32.202Z,14.05
2022-08-16T06:51:03.755Z,14.40
2022-08-16T06:53:35.741Z,14.48
2022-08-16T06:56:14.374Z,13.10
2022-08-16T06:58:58.770Z,12.95
2022-08-16T07:01:44.500Z,12.48
2022-08-16T07:04:31.929Z,12.27
2022-08-16T07:07:09.909Z,13.05
2022-08-16T07:09:38.622Z,12.05
2022-08-16T07:12:06.361Z,12.20
2022-08-16T07:14:38.430Z,11.45
2022-08-16T07:17:12.657Z,12.05
2022-08-16T07:20:30.363Z,11.07
2022-08-16T07:22:52.412Z,10.98
2022-08-16T07:25:28.106Z,11.45
2022-08-16T07:27:55.372Z,11.05
2022-08-16T07:30:39.015Z,10.98
2022-08-16T07:33:52.821Z,11.40
2022-08-16T07:36:22.155Z,11.95
2022-08-16T07:38:52.330Z,11.23
2022-08-16T07:41:20.171Z,10.80
2022-08-16T07:43:52.733Z,10.18
2022-08-16T07:46:37.540Z,10.48
2022-08-16T07:49:18.138Z,10.80
2022-08-16T07:51:46.308Z,11.40
2022-08-16T07:54:21.067Z,10.90
2022-08-16T07:57:01.025Z,11.00
2022-08-16T07:59:45.906Z,12.10
2022-08-16T08:02:20.437Z,11.40
2022-08-16T08:04:52.702Z,11.00
2022-08-16T08:07:20.829Z,10.60
2022-08-16T08:09:51.821Z,11.07
2022-08-16T08:12:32.460Z,10.43
2022-08-16T08:15:09.729Z,11.10
2022-08-16T08:17:42.800Z,10.40
2022-08-16T08:20:28.410Z,9.82
2022-08-16T08:23:01.035Z,10.07
2022-08-16T08:25:54.991Z,9.80
2022-08-16T08:28:26.377Z,8.00
2022-08-16T08:31:01.117Z,9.20
2022-08-16T08:33:32.059Z,8.63
2022-08-16T08:36:07.463Z,9.07
2022-08-16T08:38:45.883Z,9.07
2022-08-16T08:41:19.759Z,9.95
2022-08-16T08:43:55.595Z,8.63
2022-08-16T08:46:24.218Z,9.70
2022-08-16T08:48:59.259Z,9.90
2022-08-16T08:51:35.540Z,10.18
2022-08-16T08:54:09.387Z,9.38
2022-08-16T08:56:45.313Z,8.40
2022-08-16T08:59:32.961Z,9.65
2022-08-16T09:02:03.524Z,9.02
2022-08-16T09:04:39.691Z,9.48
2022-08-16T09:07:07.564Z,9.13
2022-08-16T09:09:41.031Z,9.25
2022-08-16T09:12:30.189Z,9.95
2022-08-16T09:15:03.872Z,10.55
2022-08-16T09:17:48.759Z,10.10
2022-08-16T09:20:17.123Z,8.95
2022-08-16T09:22:51.417Z,9.98
2022-08-16T09:25:26.123Z,9.93
2022-08-16T09:27:57.742Z,9.88
2022-08-16T09:30:42.895Z,9.18
2022-08-16T09:33:12.830Z,8.07
2022-08-16T09:35:42.534Z,8.88
2022-08-16T09:38:12.370Z,9.98
2022-08-16T09:40:49.499Z,10.25
2022-08-16T09:43:53.336Z,11.20
2022-08-16T09:46:45.814Z,10.27
2022-08-16T09:48:58.259Z,8.85
2022-08-16T09:51:36.946Z,9.57
2022-08-16T09:54:06.041Z,9.52
2022-08-16T09:56:38.836Z,8.82
2022-08-16T09:59:08.622Z,9.38
2022-08-16T10:01:38.525Z,10.32
2022-08-16T10:04:28.215Z,9.75
2022-08-16T10:09:45.076Z,9.43
2022-08-16T10:12:42.216Z,9.55
2022-08-16T10:15:15.217Z,9.27
2022-08-16T10:17:59.489Z,8.55
2022-08-16T10:20:32.652Z,8.73
2022-08-16T10:23:06.795Z,8.57
2022-08-16T10:27:19.700Z,8.45
2022-08-16T10:28:32.457Z,9.35
2022-08-16T10:31:14.532Z,9.68
2022-08-16T10:33:57.217Z,8.02
2022-08-16T10:36:37.870Z,8.82
2022-08-16T10:39:08.543Z,9.27
2022-08-16T10:41:35.981Z,8.60
2022-08-16T10:44:03.305Z,7.95
2022-08-16T10:46:40.042Z,7.10
2022-08-16T10:49:11.860Z,7.97
2022-08-16T10:52:03.481Z,9.65
2022-08-16T10:54:29.320Z,9.18
2022-08-16T10:56:59.268Z,9.10
2022-08-16T10:59:38.232Z,9.40
2022-08-16T11:02:59.736Z,9.38
2022-08-16T11:05:06.526Z,9.02
2022-08-16T11:07:52.621Z,10.65
2022-08-16T11:19:04.911Z,9.05
2022-08-16T11:22:11.095Z,10.57
2022-08-16T11:24:40.001Z,10.90
2022-08-16T11:27:19.583Z,9.68
2022-08-16T11:29:52.288Z,10.00
2022-08-16T11:32:22.676Z,10.35
2022-08-16T11:35:13.372Z,10.82
2022-08-16T11:40:44.473Z,10.00
2022-08-16T11:43:16.651Z,10.30
2022-08-16T11:45:54.114Z,10.35
2022-08-16T11:48:24.849Z,11.13
2022-08-16T11:50:52.866Z,10.18
2022-08-16T11:53:21.910Z,9.32
2022-08-16T11:55:50.747Z,9.07
2022-08-16T11:58:24.673Z,9.95
2022-08-16T12:00:53.317Z,9.40
2022-08-16T12:03:34.298Z,9.60
2022-08-16T12:06:25.102Z,9.63
2022-08-16T12:09:00.841Z,9.75
2022-08-16T12:11:31.705Z,10.48
2022-08-16T12:14:04.937Z,10.50
2022-08-16T12:16:37.256Z,10.35
2022-08-16T12:19:10.610Z,10.35
2022-08-16T12:21:58.380Z,9.77
2022-08-16T12:24:27.844Z,11.02
2022-08-16T12:26:55.409Z,9.65
2022-08-16T12:29:22.696Z,9.70
2022-08-16T12:32:00.959Z,10.30
2022-08-16T12:34:47.935Z,10.38
2022-08-16T12:37:18.700Z,9.63
2022-08-16T12:39:50.823Z,10.02
2022-08-16T12:42:20.628Z,10.00
2022-08-16T12:44:50.209Z,10.63
2022-08-16T12:47:37.265Z,9.85
2022-08-16T12:50:10.499Z,9.90
2022-08-16T12:52:52.137Z,10.35
2022-08-16T12:55:22.057Z,10.20
2022-08-16T12:57:58.124Z,9.93
2022-08-16T13:00:33.451Z,9.77
2022-08-16T13:03:03.498Z,10.40
2022-08-16T13:05:42.935Z,9.98
2022-08-16T13:08:20.760Z,9.75
2022-08-16T13:10:50.603Z,10.32
2022-08-16T13:13:25.028Z,9.63
2022-08-16T13:16:03.695Z,9.90
2022-08-16T13:18:35.378Z,11.50
2022-08-16T13:21:07.817Z,9.32
2022-08-16T13:23:43.759Z,7.43
2022-08-16T13:26:12.795Z,8.32
2022-08-16T13:28:47.774Z,9.30
2022-08-16T13:31:16.847Z,10.95
2022-08-16T13:33:44.716Z,11.80
2022-08-16T13:39:01.606Z,6.82
2022-08-16T13:41:30.171Z,7.90
2022-08-16T13:43:59.663Z,12.27
2022-08-16T13:46:28.452Z,14.55
2022-08-16T13:48:57.483Z,14.35
2022-08-16T13:51:29.313Z,15.43
2022-08-16T13:54:03.753Z,16.70
2022-08-16T13:56:34.478Z,17.90
2022-08-16T13:59:14.363Z,17.10
2022-08-16T14:01:55.710Z,18.05
2022-08-16T14:04:26.098Z,19.50
2022-08-16T14:06:54.942Z,19.45
2022-08-16T14:09:24.369Z,18.13
2022-08-16T14:11:53.726Z,18.58
2022-08-16T14:14:28.775Z,17.73
2022-08-16T14:17:02.245Z,20.05
2022-08-16T14:19:30.287Z,22.70
2022-08-16T14:22:13.705Z,19.23
2022-08-16T14:24:45.189Z,24.17
2022-08-16T14:27:17.138Z,22.15
2022-08-16T14:29:45.684Z,21.88
2022-08-16T14:32:27.009Z,28.85
2022-08-16T14:35:04.226Z,18.00
2022-08-16T14:37:32.069Z,17.40
2022-08-16T14:40:00.019Z,19.98
2022-08-16T14:42:27.721Z,17.88
2022-08-16T14:44:54.889Z,16.02
2022-08-16T14:47:22.768Z,15.45
2022-08-16T14:49:52.420Z,16.55
2022-08-16T14:52:37.981Z,16.08
2022-08-16T14:55:11.748Z,14.75
2022-08-16T14:57:40.488Z,13.75
2022-08-16T15:00:12.145Z,14.25
2022-08-16T15:02:40.718Z,13.32
2022-08-16T15:05:09.994Z,15.05
2022-08-16T15:07:40.176Z,13.57
2022-08-16T15:10:12.048Z,12.82
2022-08-16T15:12:54.219Z,14.35
2022-08-16T15:15:25.950Z,14.25
2022-08-16T15:17:54.633Z,15.43
2022-08-16T15:20:29.995Z,14.77
2022-08-16T15:22:59.819Z,16.33
2022-08-16T15:25:31.892Z,15.75
2022-08-16T15:28:04.639Z,14.93
2022-08-16T15:30:57.645Z,14.00
2022-08-16T15:33:25.290Z,14.30
2022-08-16T15:35:55.408Z,13.05
2022-08-16T15:38:54.716Z,15.63
2022-08-16T15:41:33.216Z,15.45
2022-08-16T15:44:05.533Z,17.23
2022-08-16T15:46:56.618Z,16.58
2022-08-16T15:49:34.928Z,15.77
2022-08-16T15:52:10.459Z,13.70
2022-08-16T15:54:52.458Z,14.63
2022-08-16T15:57:24.273Z,14.10
2022-08-16T15:59:56.162Z,13.98
2022-08-16T16:02:38.861Z,14.00
2022-08-16T16:05:09.757Z,12.90
2022-08-16T16:07:55.453Z,12.82
2022-08-16T16:10:28.315Z,14.55
2022-08-16T16:13:00.382Z,16.75
2022-08-16T16:15:32.478Z,16.48
2022-08-16T16:17:59.831Z,13.95
2022-08-16T16:20:47.476Z,13.15
2022-08-16T16:23:17.702Z,14.43
2022-08-16T16:25:45.625Z,14.85
2022-08-16T16:29:05.653Z,14.15
2022-08-16T16:31:08.858Z,15.32
2022-08-16T16:33:39.984Z,15.80
2022-08-16T16:36:08.477Z,15.75
2022-08-16T16:38:35.746Z,14.75
2022-08-16T16:41:11.324Z,14.00
2022-08-16T16:43:41.668Z,13.65
2022-08-16T16:46:40.411Z,12.60
2022-08-16T16:48:58.069Z,12.27
2022-08-16T16:51:28.044Z,11.88
2022-08-16T16:53:57.100Z,11.82
2022-08-16T16:56:31.331Z,11.88
2022-08-16T16:59:02.229Z,12.25
2022-08-16T17:01:56.623Z,11.60
2022-08-16T17:04:31.424Z,11.90
2022-08-16T17:07:03.622Z,12.30
2022-08-16T17:09:30.801Z,14.25
2022-08-16T17:11:58.848Z,12.95
2022-08-16T17:14:32.260Z,12.80
2022-08-16T17:17:08.687Z,12.15
2022-08-16T17:19:41.022Z,12.23
2022-08-16T17:22:15.431Z,12.38
2022-08-16T17:24:50.926Z,12.40
2022-08-16T17:27:34.005Z,12.85
2022-08-16T17:30:12.353Z,12.85
2022-08-16T17:32:50.405Z,12.30
2022-08-16T17:35:55.604Z,14.52
2022-08-16T17:38:38.591Z,13.70
2022-08-16T17:41:12.864Z,13.52
2022-08-16T17:43:43.804Z,13.55
2022-08-16T17:46:51.528Z,15.13
2022-08-16T17:49:00.544Z,13.43
2022-08-16T17:51:28.621Z,12.90
2022-08-16T17:53:55.695Z,13.95
2022-08-16T17:56:22.824Z,13.95
2022-08-16T17:58:49.938Z,14.25
2022-08-16T18:01:27.102Z,13.20
2022-08-16T18:04:07.946Z,14.27
2022-08-16T18:06:37.112Z,14.65
2022-08-16T18:09:04.891Z,15.80
2022-08-16T18:11:41.311Z,15.48
2022-08-16T18:14:11.414Z,15.40
2022-08-16T18:16:40.827Z,14.85
2022-08-16T18:19:09.342Z,16.73
2022-08-16T18:21:55.045Z,16.50
2022-08-16T18:24:22.008Z,16.95
2022-08-16T18:26:49.205Z,16.50
2022-08-16T18:29:16.277Z,16.88
2022-08-16T18:31:43.316Z,17.15
2022-08-16T18:34:10.564Z,16.83
2022-08-16T18:36:37.592Z,17.77
2022-08-16T18:39:04.870Z,17.77
2022-08-16T18:41:36.930Z,17.80
2022-08-16T18:44:25.652Z,19.55
2022-08-16T18:46:53.628Z,21.58
2022-08-16T18:49:20.648Z,24.50
2022-08-16T18:51:47.723Z,22.17
2022-08-16T18:54:18.345Z,20.23
2022-08-16T18:56:57.109Z,18.70
2022-08-16T18:59:30.269Z,18.33
2022-08-16T19:02:04.507Z,19.40
2022-08-16T19:04:55.800Z,21.17
2022-08-16T19:07:29.872Z,19.85
2022-08-16T19:10:01.444Z,20.33
2022-08-16T19:12:47.154Z,21.05
2022-08-16T19:15:20.274Z,20.10
2022-08-16T19:17:48.017Z,18.88
2022-08-16T19:20:19.142Z,18.15
2022-08-16T19:25:47.156Z,20.92
2022-08-16T19:28:21.774Z,21.73
2022-08-16T19:31:10.946Z,20.67
2022-08-16T19:33:39.056Z,18.55
2022-08-16T19:36:06.750Z,22.55
2022-08-16T19:38:35.417Z,22.63
2022-08-16T19:41:02.521Z,20.63
2022-08-16T19:43:29.559Z,23.05
2022-08-16T19:45:56.746Z,19.88
2022-08-16T19:48:23.836Z,23.13
2022-08-16T19:50:51.154Z,23.20
2022-08-16T19:53:19.538Z,21.48
2022-08-16T19:55:47.690Z,21.58
2022-08-16T19:58:18.278Z,23.33
2022-08-16T20:00:47.141Z,18.55
2022-08-16T20:03:21.908Z,20.10
2022-08-16T20:05:51.834Z,15.38
2022-08-16T20:08:19.167Z,16.90
2022-08-16T20:10:47.437Z,17.27
2022-08-16T20:13:19.386Z,18.45
2022-08-16T20:15:48.392Z,16.17
2022-08-16T20:18:24.806Z,17.88
2022-08-16T20:20:52.962Z,14.10
2022-08-16T20:23:24.360Z,14.55
2022-08-16T20:25:55.922Z,16.67
2022-08-16T20:28:52.004Z,13.38
2022-08-16T20:31:11.990Z,10.98
2022-08-16T20:33:39.058Z,9.68
2022-08-16T20:36:06.177Z,11.55
2022-08-16T20:38:35.302Z,10.68
2022-08-16T20:41:02.508Z,11.77
2022-08-16T20:43:29.472Z,17.00
2022-08-16T20:45:56.481Z,14.88
2022-08-16T20:48:23.572Z,13.88
2022-08-16T20:50:50.509Z,14.23
2022-08-16T20:53:17.721Z,12.57
2022-08-16T20:55:45.607Z,15.50
2022-08-16T20:58:12.792Z,18.27
2022-08-16T21:00:40.904Z,16.90
2022-08-16T21:03:10.096Z,16.70
2022-08-16T21:05:37.275Z,18.15
2022-08-16T21:08:50.224Z,22.83
2022-08-16T21:10:52.670Z,24.63
2022-08-16T21:13:20.885Z,25.92
2022-08-16T21:15:49.044Z,25.88
2022-08-16T21:18:16.118Z,24.88
2022-08-16T21:20:43.421Z,22.95
2022-08-16T21:23:11.318Z,22.83
2022-08-16T21:25:58.161Z,22.98
2022-08-16T21:28:39.360Z,23.92
2022-08-16T21:31:10.996Z,22.90
2022-08-16T21:33:37.900Z,23.70
2022-08-16T21:36:05.287Z,24.80
2022-08-16T21:38:32.502Z,22.92
2022-08-16T21:41:00.386Z,23.83
2022-08-16T21:43:31.902Z,20.08
2022-08-16T21:46:03.878Z,19.48
2022-08-16T21:48:33.824Z,22.75
2022-08-16T21:51:07.448Z,19.85
2022-08-16T21:53:35.670Z,18.60
2022-08-16T21:56:03.314Z,17.40
2022-08-16T21:58:31.155Z,18.70
2022-08-16T22:00:59.278Z,21.58
2022-08-16T22:03:26.326Z,18.30
2022-08-16T22:06:13.590Z,17.92
2022-08-16T22:08:50.618Z,15.20
2022-08-16T22:11:20.826Z,17.88
2022-08-16T22:13:51.285Z,18.30
2022-08-16T22:16:34.059Z,18.77
2022-08-16T22:19:02.278Z,17.70
2022-08-16T22:21:30.397Z,15.57
2022-08-16T22:23:58.838Z,15.55
2022-08-16T22:26:32.177Z,15.88
2022-08-16T22:29:09.290Z,16.38
2022-08-16T22:31:38.052Z,15.65
2022-08-16T22:34:05.872Z,14.85
2022-08-16T22:36:34.370Z,17.08
2022-08-16T22:39:03.674Z,17.00
2022-08-16T22:41:32.868Z,18.20
2022-08-16T22:44:02.139Z,18.10
2022-08-16T22:46:30.447Z,14.13
2022-08-16T22:48:57.785Z,17.20
2022-08-16T22:51:27.260Z,16.70
2022-08-16T22:53:55.061Z,19.00
2022-08-16T22:56:24.242Z,18.25
2022-08-16T22:58:51.422Z,17.30
2022-08-16T23:01:20.433Z,16.83
2022-08-16T23:03:47.730Z,18.10
2022-08-16T23:06:15.471Z,19.45
2022-08-16T23:08:46.067Z,18.98
2022-08-16T23:11:21.305Z,19.60
2022-08-16T23:13:53.558Z,19.58
2022-08-16T23:16:32.769Z,18.65
2022-08-16T23:19:07.258Z,19.20
2022-08-16T23:21:37.184Z,20.50
2022-08-16T23:24:05.665Z,18.73
2022-08-16T23:26:44.395Z,20.10
2022-08-16T23:29:26.524Z,20.55
2022-08-16T23:32:08.606Z,20.45
2022-08-16T23:34:35.790Z,23.38
2022-08-16T23:37:02.837Z,20.42
2022-08-16T23:39:29.820Z,20.88
2022-08-16T23:41:56.984Z,20.25
2022-08-16T23:44:58.703Z,21.70
2022-08-16T23:47:11.806Z,19.50
2022-08-16T23:49:58.241Z,21.27
2022-08-16T23:52:45.707Z,21.90
2022-08-16T23:55:13.507Z,22.13
2022-08-16T23:57:40.646Z,23.25
